Grand Tri Run - The Running Day
22 May 2016

     
Click your name for detailed results

Page 1 of 2 (98 items)
PosBib NoNameGun TimeChip TimeCategoryCat PosGenderGen PosClubPace
568Samantha INNES1:38:16.81:38:13.0Sen1Female1 8.0 m/hr
5365Lissy HEATON2:03:07.22:03:05.9Sen2Female5 6.4 m/hr
54105Florence SMART2:04:13.02:04:03.9Sen3Female6 6.3 m/hr
5810Hannah BOWDITCH2:08:44.62:08:34.8Sen4Female9 6.1 m/hr
6129Suzie DAW2:08:50.32:08:41.7Sen5Female10 6.1 m/hr
6361Victoria HAMPTON2:09:08.92:09:04.9Sen6Female11SALISBURY TRI CLUB 6.1 m/hr
6533Elise DIXON2:10:08.02:10:00.3Sen7Female12 6.0 m/hr
8280Tracey MALLON2:18:35.52:18:28.4Sen8Female21 5.7 m/hr
8340Sandra ECKARDT2:20:12.52:20:00.7Sen9Female22 5.6 m/hr
9282Kathryn MELHUISH2:31:44.52:31:38.2Sen10Female26 5.2 m/hr
9651Alison FRENCH2:38:20.82:38:16.7Sen11Female29 5.0 m/hr
973Cathie BAKER2:52:41.22:52:40.1Sen12Female30 4.6 m/hr
2114Matthew VAIL1:29:24.01:29:21.8Sen1Male2 8.8 m/hr
330Ben DELL1:34:17.31:34:17.3Sen2Male3 8.3 m/hr
88Lars BIELER1:40:59.01:40:48.4Sen3Male7 7.8 m/hr
99James BLACKBOURN1:41:05.61:41:02.3Sen4Male8 7.8 m/hr
1144Jordan EVANS1:42:08.01:42:05.7Sen5Male10 7.7 m/hr
1378Allen LONG1:43:03.11:42:53.0Sen6Male12 7.6 m/hr
15120Graham WRIGHT1:44:25.21:44:20.6Sen7Male14 7.5 m/hr
18117Mark WILLIS1:48:22.71:48:22.0Sen8Male17 7.3 m/hr
2220Sam CASWELL1:52:00.61:51:58.1Sen9Male21 7.0 m/hr
2566Sean HILDER1:52:42.31:52:40.8Sen10Male24 7.0 m/hr
3238Jarrod DUNNING1:55:09.31:55:03.0Sen11Male30 6.8 m/hr
33338Sean HAMILTON1:55:20.01:55:05.9Sen12Male31 6.8 m/hr
3796Oliver POOLE1:56:13.81:56:06.7Sen13Male34 6.8 m/hr
3845Andy FAIRCHILD1:56:17.71:56:16.0Sen14Male35 6.8 m/hr
4941James ELLIOTT2:02:16.12:02:06.4Sen15Male45 6.4 m/hr
6279Paul MAIN2:08:50.52:08:41.7Sen16Male52 6.1 m/hr
6428Ross DAVISON2:10:01.92:09:47.8Sen17Male53 6.0 m/hr
7191Catherine PIPER2:12:55.32:12:54.1Sen18Male55 5.9 m/hr
78113Adam TOWNSEND2:16:56.52:16:51.6Sen19Male58 5.7 m/hr
8157Tom GRISCTI-PERRY2:17:37.72:17:32.3Sen20Male61 5.7 m/hr
306Beth BARCLAY1:53:21.81:53:16.0V401Female2 6.9 m/hr
3512Susan BRYAN1:55:24.81:55:09.3V402Female3 6.8 m/hr
4798Jane ROBSON2:01:18.02:01:09.5V403Female4 6.5 m/hr
6614Wendy BULLEN2:11:28.22:11:24.3V404Female13 6.0 m/hr
6724Dawn COSH2:11:52.12:11:44.3V405Female14 6.0 m/hr
6873Claire JOYCE2:11:59.92:11:56.4V406Female15 6.0 m/hr
6976Janeen LINSLEY2:12:02.22:12:01.6V407Female16 6.0 m/hr
7255Emma GOSS-CUSTARD2:14:01.22:13:54.4V408Female17 5.9 m/hr
7469Jacqueline IVES2:14:58.02:14:49.6V409Female18 5.8 m/hr
7571Niki JOHN2:15:45.12:15:44.6V4010Female19 5.8 m/hr
7797Monica POULTON2:16:25.12:16:19.5V4011Female20 5.8 m/hr
8677Ellie LOCK2:27:13.92:27:01.2V4012Female23 5.3 m/hr
8956Lucia GREGORY2:30:07.42:29:56.0V4013Female24 5.2 m/hr
94118Lisa WOOLNOUGH2:37:26.52:37:23.9V4014Female27 5.0 m/hr
9537Nikki DOWNTON2:38:20.12:38:15.4V4015Female28 5.0 m/hr
193Benedict POLLARD1:27:45.91:27:45.2V401Male1 9.0 m/hr
6339Marko KIISKI1:39:09.41:38:57.8V402Male5 7.9 m/hr
759Ed HADDON1:40:26.31:40:23.5V403Male6 7.8 m/hr
Page 1 of 2 (98 items)
   

fb